createdAt,value
2022-08-23T00:00:01.195Z,18.57
2022-08-23T00:05:31.428Z,18.60
2022-08-23T00:10:34.412Z,18.62
2022-08-23T00:15:37.895Z,18.58
2022-08-23T00:20:40.633Z,18.52
2022-08-23T00:25:43.934Z,18.46
2022-08-23T00:30:46.713Z,18.43
2022-08-23T00:35:49.978Z,18.40
2022-08-23T00:40:53.933Z,18.36
2022-08-23T00:46:33.574Z,18.33
2022-08-23T00:51:57.765Z,18.35
2022-08-23T00:57:05.672Z,18.36
2022-08-23T01:02:09.956Z,18.34
2022-08-23T01:07:19.609Z,18.33
2022-08-23T01:12:35.516Z,18.32
2022-08-23T01:17:46.573Z,18.31
2022-08-23T01:22:59.018Z,18.27
2022-08-23T01:28:01.991Z,18.23
2022-08-23T01:33:07.426Z,18.19
2022-08-23T01:38:11.685Z,18.17
2022-08-23T01:43:15.509Z,18.14
2022-08-23T01:48:18.907Z,18.10
2022-08-23T01:53:21.578Z,18.06
2022-08-23T01:58:24.781Z,18.04
2022-08-23T02:03:29.718Z,18.01
2022-08-23T02:08:52.463Z,17.99
2022-08-23T02:13:58.934Z,18.02
2022-08-23T02:19:06.078Z,18.09
2022-08-23T02:24:22.086Z,18.17
2022-08-23T02:29:29.671Z,18.26
2022-08-23T02:34:32.544Z,18.32
2022-08-23T02:39:38.774Z,18.37
2022-08-23T02:44:42.102Z,18.41
2022-08-23T02:49:44.858Z,18.48
2022-08-23T02:54:50.589Z,18.55
2022-08-23T02:59:56.016Z,18.62
2022-08-23T03:04:59.319Z,18.67
2022-08-23T03:10:02.476Z,18.71
2022-08-23T03:15:06.889Z,18.70
2022-08-23T03:20:11.241Z,18.66
2022-08-23T03:25:13.925Z,18.59
2022-08-23T03:30:19.935Z,18.59
2022-08-23T03:35:23.022Z,18.59
2022-08-23T03:40:26.114Z,18.64
2022-08-23T03:45:29.759Z,18.69
2022-08-23T03:50:32.533Z,18.75
2022-08-23T03:55:38.502Z,18.78
2022-08-23T04:00:45.320Z,18.83
2022-08-23T04:05:48.548Z,18.87
2022-08-23T04:10:51.304Z,18.89
2022-08-23T04:15:55.231Z,18.92
2022-08-23T04:21:01.517Z,18.93
2022-08-23T04:26:05.923Z,18.94
2022-08-23T04:31:12.556Z,19.01
2022-08-23T04:36:15.281Z,19.09
2022-08-23T04:41:37.591Z,19.19
2022-08-23T04:46:40.917Z,19.25
2022-08-23T04:51:43.829Z,19.29
2022-08-23T04:56:56.682Z,19.30
2022-08-23T05:01:59.489Z,19.37
2022-08-23T05:07:02.701Z,19.50
2022-08-23T05:12:05.794Z,19.62
2022-08-23T05:17:08.509Z,19.78
2022-08-23T05:22:12.537Z,20.00
2022-08-23T05:27:16.186Z,20.25
2022-08-23T05:32:19.160Z,20.47
2022-08-23T05:37:21.913Z,20.64
2022-08-23T05:42:24.705Z,20.80
2022-08-23T05:47:28.279Z,20.93
2022-08-23T05:52:36.678Z,20.98
2022-08-23T05:57:39.674Z,21.14
2022-08-23T06:02:43.084Z,21.17
2022-08-23T06:07:45.863Z,21.05
2022-08-23T06:12:49.108Z,21.10
2022-08-23T06:17:51.883Z,21.53
2022-08-23T06:22:54.662Z,22.05
2022-08-23T06:27:58.892Z,22.36
2022-08-23T06:33:02.956Z,22.70
2022-08-23T06:38:06.966Z,22.98
2022-08-23T06:43:09.968Z,23.42
2022-08-23T06:48:17.022Z,23.90
2022-08-23T06:53:21.453Z,24.18
2022-08-23T06:58:25.422Z,24.46
2022-08-23T07:03:28.655Z,24.56
2022-08-23T07:08:31.452Z,24.64
2022-08-23T07:13:34.605Z,24.79
2022-08-23T07:18:37.680Z,24.90
2022-08-23T07:23:42.836Z,24.91
2022-08-23T07:28:50.334Z,24.97
2022-08-23T07:33:58.859Z,24.64
2022-08-23T07:39:04.549Z,24.19
2022-08-23T07:44:10.186Z,23.90
2022-08-23T07:49:13.672Z,23.80
2022-08-23T07:54:18.376Z,23.76
2022-08-23T07:59:21.087Z,24.05
2022-08-23T08:04:23.765Z,24.71
2022-08-23T08:09:26.611Z,25.41
2022-08-23T08:14:29.718Z,26.45
2022-08-23T08:19:32.521Z,27.52
2022-08-23T08:24:35.795Z,28.83
2022-08-23T08:29:38.695Z,30.92
2022-08-23T08:34:42.122Z,35.01
2022-08-23T08:39:48.013Z,37.35
2022-08-23T08:45:05.656Z,39.77
2022-08-23T08:50:14.562Z,42.26
2022-08-23T08:55:32.077Z,41.35
2022-08-23T09:00:39.237Z,40.12
2022-08-23T09:05:56.393Z,42.27
2022-08-23T09:11:24.157Z,44.07
2022-08-23T09:16:41.819Z,45.56
2022-08-23T09:21:49.776Z,46.44
2022-08-23T09:26:54.034Z,46.99
2022-08-23T09:32:02.344Z,47.55
2022-08-23T09:37:18.009Z,47.72
2022-08-23T09:42:35.982Z,47.82
2022-08-23T09:47:44.869Z,47.67
2022-08-23T09:52:48.741Z,47.88
2022-08-23T09:57:52.108Z,48.49
2022-08-23T10:02:57.997Z,48.83
2022-08-23T10:08:02.624Z,49.15
2022-08-23T10:13:06.240Z,49.82
2022-08-23T10:18:29.081Z,48.21
2022-08-23T10:23:56.427Z,45.93
2022-08-23T10:29:23.254Z,43.72
2022-08-23T10:34:31.748Z,42.53
2022-08-23T10:40:03.518Z,42.21
2022-08-23T10:45:30.586Z,43.39
2022-08-23T10:50:43.067Z,43.64
2022-08-23T10:56:15.629Z,42.45
2022-08-23T11:01:44.247Z,43.14
2022-08-23T11:06:55.550Z,45.06
2022-08-23T11:12:23.668Z,46.25
2022-08-23T11:17:48.382Z,46.78
2022-08-23T11:22:57.411Z,47.61
2022-08-23T11:28:22.127Z,48.39
2022-08-23T11:33:31.492Z,49.18
2022-08-23T11:38:49.337Z,49.83
2022-08-23T11:44:07.825Z,49.82
2022-08-23T11:49:28.927Z,50.17
2022-08-23T11:54:56.832Z,50.16
2022-08-23T12:00:28.633Z,49.56
2022-08-23T12:05:35.411Z,49.21
2022-08-23T12:10:38.073Z,49.54
2022-08-23T12:16:16.917Z,49.86
2022-08-23T12:21:43.987Z,50.20
2022-08-23T12:27:11.429Z,50.32
2022-08-23T12:32:37.917Z,49.37
2022-08-23T12:37:56.881Z,48.94
2022-08-23T12:43:23.112Z,47.85
2022-08-23T12:48:30.216Z,47.03
2022-08-23T12:53:38.520Z,43.89
2022-08-23T12:58:52.515Z,40.75
2022-08-23T13:04:06.321Z,38.24
2022-08-23T13:09:22.659Z,36.26
2022-08-23T13:14:26.733Z,34.80
2022-08-23T13:19:34.118Z,33.65
2022-08-23T13:24:40.422Z,32.83
2022-08-23T13:29:52.317Z,31.95
2022-08-23T13:34:56.710Z,31.10
2022-08-23T13:40:14.281Z,30.42
2022-08-23T13:45:25.532Z,29.92
2022-08-23T13:50:35.291Z,29.52
2022-08-23T13:55:46.461Z,29.16
2022-08-23T14:00:55.303Z,28.78
2022-08-23T14:05:58.386Z,28.34
2022-08-23T14:11:01.492Z,27.12
2022-08-23T14:21:32.327Z,23.04
2022-08-23T14:26:35.302Z,22.27
2022-08-23T14:31:38.245Z,21.85
2022-08-23T14:38:00.239Z,21.62
2022-08-23T14:42:07.989Z,21.55
2022-08-23T14:47:11.529Z,21.60
2022-08-23T14:52:15.626Z,21.66
2022-08-23T14:57:18.418Z,21.61
2022-08-23T15:02:24.823Z,21.52
2022-08-23T15:07:27.762Z,21.48
2022-08-23T15:17:57.627Z,21.46
2022-08-23T15:23:01.012Z,21.43
2022-08-23T15:28:12.204Z,21.46
2022-08-23T15:33:16.040Z,21.54
2022-08-23T15:38:22.968Z,21.61
2022-08-23T15:43:34.104Z,21.70
2022-08-23T15:48:44.736Z,21.77
2022-08-23T15:53:47.877Z,21.82
2022-08-23T15:58:54.114Z,21.84
2022-08-23T16:03:57.562Z,21.85
2022-08-23T16:09:00.871Z,21.76
2022-08-23T16:14:03.901Z,21.58
2022-08-23T16:19:08.918Z,21.36
2022-08-23T16:24:12.028Z,21.13
2022-08-23T16:29:18.222Z,20.93
2022-08-23T16:34:21.061Z,20.75
2022-08-23T16:39:24.475Z,20.66
2022-08-23T16:44:28.590Z,20.66
2022-08-23T16:49:34.378Z,20.64
2022-08-23T16:54:37.993Z,20.61
2022-08-23T16:59:40.796Z,20.56
2022-08-23T17:04:43.507Z,20.56
2022-08-23T17:09:47.221Z,20.57
2022-08-23T17:14:51.512Z,20.61
2022-08-23T17:19:54.312Z,20.64
2022-08-23T17:24:57.616Z,20.65
2022-08-23T17:30:00.835Z,20.69
2022-08-23T17:35:03.871Z,20.76
2022-08-23T17:40:10.840Z,20.85
2022-08-23T17:45:16.538Z,20.91
2022-08-23T17:50:20.780Z,20.92
2022-08-23T17:55:24.853Z,20.95
2022-08-23T18:00:28.726Z,20.97
2022-08-23T18:05:33.398Z,20.96
2022-08-23T18:10:36.671Z,20.94
2022-08-23T18:15:39.657Z,20.94
2022-08-23T18:20:42.399Z,20.93
2022-08-23T18:25:45.922Z,20.90
2022-08-23T18:30:54.730Z,20.87
2022-08-23T18:35:57.530Z,20.84
2022-08-23T18:41:00.273Z,20.83
2022-08-23T18:46:03.121Z,20.83
2022-08-23T18:51:16.301Z,20.83
2022-08-23T18:56:21.283Z,20.86
2022-08-23T19:01:26.757Z,20.90
2022-08-23T19:06:30.344Z,20.94
2022-08-23T19:11:33.653Z,20.99
2022-08-23T19:16:37.249Z,21.04
2022-08-23T19:21:40.267Z,21.08
2022-08-23T19:26:47.793Z,21.12
2022-08-23T19:31:50.768Z,21.15
2022-08-23T19:37:00.778Z,21.21
2022-08-23T19:42:11.458Z,21.26
2022-08-23T19:47:17.693Z,21.30
2022-08-23T19:52:23.046Z,21.33
2022-08-23T19:57:28.110Z,21.32
2022-08-23T20:02:30.982Z,21.33
2022-08-23T20:07:36.326Z,21.35
2022-08-23T20:12:39.389Z,21.39
2022-08-23T20:17:42.312Z,21.42
2022-08-23T20:23:04.169Z,21.46
2022-08-23T20:28:08.384Z,21.48
2022-08-23T20:33:11.139Z,21.49
2022-08-23T20:38:32.753Z,21.49
2022-08-23T20:43:39.152Z,21.48
2022-08-23T20:48:41.952Z,21.46
2022-08-23T20:53:45.677Z,21.45
2022-08-23T20:58:48.493Z,21.43
2022-08-23T21:03:52.425Z,21.41
2022-08-23T21:08:57.981Z,21.37
2022-08-23T21:14:00.955Z,21.33
2022-08-23T21:19:03.921Z,21.29
2022-08-23T21:24:08.937Z,21.23
2022-08-23T21:29:11.941Z,21.17
2022-08-23T21:34:15.179Z,21.11
2022-08-23T21:39:17.980Z,21.04
2022-08-23T21:44:21.396Z,21.00
2022-08-23T21:49:24.222Z,20.96
2022-08-23T21:54:27.295Z,20.94
2022-08-23T21:59:30.088Z,20.94
2022-08-23T22:04:33.000Z,20.93
2022-08-23T22:09:36.144Z,20.91
2022-08-23T22:14:39.030Z,20.88
2022-08-23T22:19:41.766Z,20.87
2022-08-23T22:24:44.531Z,20.86
2022-08-23T22:29:47.562Z,20.87
2022-08-23T22:34:50.367Z,20.85
2022-08-23T22:39:56.388Z,20.84
2022-08-23T22:45:00.353Z,20.85
2022-08-23T22:50:04.643Z,20.84
2022-08-23T22:55:08.375Z,20.80
2022-08-23T23:00:13.693Z,20.75
2022-08-23T23:05:16.496Z,20.72
2022-08-23T23:10:19.357Z,20.73
2022-08-23T23:15:22.463Z,20.72
2022-08-23T23:20:39.330Z,20.71
2022-08-23T23:25:42.953Z,20.73
2022-08-23T23:30:48.642Z,20.72
2022-08-23T23:35:54.334Z,20.71
2022-08-23T23:40:57.088Z,20.68
2022-08-23T23:46:05.023Z,20.66
2022-08-23T23:51:13.212Z,20.63
2022-08-23T23:56:17.771Z,20.60
